| time (UTC) | temp F | wind direction | speed knots | gust knots | rain 1hr in | rain 24hr in | rain mn in | humidity % | barometer mb |
| 20260506044517 | 61 | 0.0 | 3.5 | 0.00 | 0.19 | 0.14 | 41 | 1019.1 | |
| 20260506043517 | 62 | 68 | 0.9 | 3.5 | 0.00 | 0.19 | 0.14 | 40 | 1019.2 |
| 20260506042517 | 62 | 68 | 1.7 | 5.2 | 0.00 | 0.19 | 0.14 | 40 | 1019.0 |
| 20260506041517 | 62 | 90 | 1.7 | 4.3 | 0.00 | 0.19 | 0.14 | 40 | 1018.8 |
| 20260506040517 | 62 | 270 | 0.9 | 2.6 | 0.00 | 0.19 | 0.14 | 40 | 1018.6 |
| 20260506035517 | 63 | 113 | 0.9 | 3.5 | 0.00 | 0.20 | 0.14 | 41 | 1018.5 |
| 20260506034517 | 63 | 338 | 1.7 | 4.3 | 0.00 | 0.20 | 0.14 | 40 | 1018.3 |
| 20260506033517 | 63 | 293 | 0.9 | 3.5 | 0.00 | 0.20 | 0.14 | 40 | 1018.3 |
| 20260506032517 | 63 | 270 | 0.9 | 5.2 | 0.00 | 0.20 | 0.14 | 39 | 1018.2 |
| 20260506031517 | 64 | 293 | 2.6 | 6.1 | 0.00 | 0.20 | 0.14 | 39 | 1018.3 |
| 20260506030517 | 65 | 270 | 5.2 | 8.7 | 0.00 | 0.20 | 0.14 | 36 | 1017.9 |
| 20260506025517 | 65 | 270 | 3.5 | 7.0 | 0.00 | 0.25 | 0.14 | 35 | 1017.7 |
| 20260506024517 | 65 | 270 | 4.3 | 7.8 | 0.00 | 0.25 | 0.14 | 36 | 1017.5 |
| 20260506023517 | 65 | 270 | 4.3 | 8.7 | 0.00 | 0.25 | 0.14 | 36 | 1017.5 |
| 20260506022516 | 65 | 270 | 5.2 | 8.7 | 0.00 | 0.25 | 0.14 | 36 | 1016.8 |
| 20260506021516 | 66 | 270 | 5.2 | 10.4 | 0.00 | 0.25 | 0.14 | 36 | 1017.0 |
| 20260506020517 | 66 | 270 | 4.3 | 8.7 | 0.00 | 0.25 | 0.14 | 36 | 1016.8 |
| 20260506015516 | 67 | 270 | 7.0 | 12.2 | 0.00 | 0.26 | 0.14 | 36 | 1016.4 |
| 20260506014516 | 67 | 270 | 7.0 | 10.4 | 0.00 | 0.26 | 0.14 | 36 | 1016.6 |
| 20260506013516 | 68 | 270 | 7.8 | 12.2 | 0.00 | 0.26 | 0.14 | 34 | 1016.6 |
| 20260506012516 | 69 | 270 | 7.0 | 11.3 | 0.00 | 0.26 | 0.14 | 33 | 1016.6 |
| 20260506011516 | 70 | 270 | 7.8 | 12.2 | 0.00 | 0.26 | 0.14 | 31 | 1016.5 |
| 20260506010516 | 70 | 270 | 8.7 | 12.2 | 0.00 | 0.26 | 0.14 | 28 | 1016.4 |
| 20260506005516 | 71 | 248 | 7.8 | 11.3 | 0.00 | 0.26 | 0.14 | 28 | 1016.5 |
| 20260506004516 | 71 | 248 | 8.7 | 12.2 | 0.00 | 0.26 | 0.14 | 29 | 1016.4 |
| 20260506003516 | 71 | 270 | 7.8 | 12.2 | 0.00 | 0.26 | 0.14 | 30 | 1016.4 |
| 20260506002516 | 70 | 248 | 9.6 | 13.9 | 0.00 | 0.26 | 0.14 | 29 | 1016.3 |
| 20260506001516 | 70 | 270 | 8.7 | 15.6 | 0.00 | 0.26 | 0.14 | 29 | 1016.3 |
| 20260506000516 | 71 | 248 | 7.8 | 13.9 | 0.00 | 0.26 | 0.14 | 28 | 1016.6 |
| 20260505235516 | 72 | 248 | 8.7 | 15.6 | 0.00 | 0.26 | 0.14 | 28 | 1016.6 |
| 20260505234516 | 71 | 248 | 8.7 | 15.6 | 0.00 | 0.26 | 0.14 | 27 | 1016.6 |
| 20260505233516 | 72 | 248 | 7.8 | 13.9 | 0.00 | 0.26 | 0.14 | 26 | 1016.8 |
| 20260505232516 | 72 | 248 | 10.4 | 20.9 | 0.00 | 0.26 | 0.14 | 25 | 1016.5 |
| 20260505231516 | 72 | 248 | 11.3 | 20.0 | 0.00 | 0.26 | 0.14 | 25 | 1016.9 |
| 20260505230516 | 72 | 270 | 11.3 | 17.4 | 0.00 | 0.26 | 0.14 | 24 | 1016.6 |
| 20260505225516 | 72 | 270 | 10.4 | 18.2 | 0.00 | 0.26 | 0.14 | 25 | 1016.4 |
| 20260505224516 | 72 | 248 | 11.3 | 18.2 | 0.00 | 0.26 | 0.14 | 31 | 1016.4 |
| 20260505223516 | 72 | 270 | 9.6 | 18.2 | 0.00 | 0.26 | 0.14 | 32 | 1016.4 |
| 20260505222516 | 72 | 248 | 12.2 | 21.7 | 0.00 | 0.26 | 0.14 | 31 | 1016.8 |
| 20260505221516 | 73 | 248 | 12.2 | 20.0 | 0.00 | 0.26 | 0.14 | 33 | 1017.0 |
| 20260505220516 | 72 | 248 | 9.6 | 16.5 | 0.00 | 0.26 | 0.14 | 34 | 1016.8 |
| 20260505215516 | 73 | 248 | 9.6 | 15.6 | 0.00 | 0.26 | 0.14 | 34 | 1017.0 |
| 20260505214516 | 72 | 248 | 11.3 | 18.2 | 0.00 | 0.26 | 0.14 | 35 | 1017.1 |
| 20260505213516 | 72 | 225 | 7.8 | 12.2 | 0.00 | 0.26 | 0.14 | 38 | 1017.2 |
| 20260505212516 | 72 | 248 | 11.3 | 17.4 | 0.00 | 0.26 | 0.14 | 36 | 1017.4 |
| 20260505211516 | 72 | 248 | 8.7 | 14.8 | 0.00 | 0.26 | 0.14 | 35 | 1017.3 |
| 20260505210516 | 72 | 248 | 6.1 | 12.2 | 0.00 | 0.26 | 0.14 | 37 | 1017.2 |
| 20260505205516 | 73 | 225 | 7.0 | 16.5 | 0.00 | 0.26 | 0.14 | 34 | 1017.3 |
| 20260505204516 | 71 | 248 | 7.0 | 14.8 | 0.00 | 0.26 | 0.14 | 37 | 1017.6 |
| 20260505203516 | 70 | 225 | 7.8 | 18.2 | 0.00 | 0.26 | 0.14 | 38 | 1017.6 |
| 20260505202516 | 70 | 270 | 7.8 | 13.9 | 0.00 | 0.26 | 0.14 | 40 | 1017.6 |
| 20260505201516 | 71 | 270 | 11.3 | 22.6 | 0.00 | 0.26 | 0.14 | 40 | 1018.1 |
| 20260505200516 | 71 | 225 | 7.8 | 13.9 | 0.00 | 0.26 | 0.14 | 39 | 1018.0 |
| 20260505195516 | 70 | 248 | 11.3 | 17.4 | 0.00 | 0.26 | 0.14 | 42 | 1017.9 |
| 20260505194516 | 70 | 270 | 8.7 | 15.6 | 0.00 | 0.26 | 0.14 | 43 | 1018.0 |
| 20260505193516 | 70 | 248 | 7.8 | 15.6 | 0.00 | 0.26 | 0.14 | 44 | 1018.0 |
| 20260505192516 | 70 | 248 | 8.7 | 14.8 | 0.00 | 0.26 | 0.14 | 41 | 1018.0 |
| 20260505191516 | 70 | 225 | 7.0 | 12.2 | 0.00 | 0.26 | 0.14 | 44 | 1018.1 |
| 20260505190516 | 69 | 248 | 10.4 | 20.9 | 0.00 | 0.26 | 0.14 | 47 | 1018.4 |
| 20260505185516 | 68 | 248 | 8.7 | 14.8 | 0.00 | 0.26 | 0.14 | 48 | 1018.2 |
| 20260505184516 | 68 | 248 | 9.6 | 16.5 | 0.00 | 0.26 | 0.14 | 48 | 1018.4 |
| 20260505183516 | 68 | 248 | 5.2 | 13.0 | 0.00 | 0.26 | 0.14 | 47 | 1018.7 |
| 20260505182516 | 67 | 225 | 3.5 | 10.4 | 0.00 | 0.26 | 0.14 | 53 | 1018.8 |
| 20260505181516 | 67 | 248 | 7.0 | 12.2 | 0.00 | 0.26 | 0.14 | 54 | 1019.1 |
| 20260505180516 | 67 | 225 | 6.1 | 12.2 | 0.01 | 0.26 | 0.14 | 54 | 1018.9 |
| 20260505175516 | 67 | 248 | 6.1 | 14.8 | 0.01 | 0.26 | 0.14 | 54 | 1018.8 |
| 20260505174516 | 66 | 248 | 7.0 | 11.3 | 0.01 | 0.26 | 0.14 | 56 | 1018.9 |
| 20260505173516 | 66 | 248 | 4.3 | 11.3 | 0.01 | 0.26 | 0.14 | 57 | 1019.0 |
| 20260505172515 | 65 | 248 | 7.0 | 13.9 | 0.01 | 0.26 | 0.14 | 56 | 1019.0 |
| 20260505171516 | 65 | 225 | 4.3 | 10.4 | 0.01 | 0.26 | 0.14 | 60 | 1019.0 |
| 20260505170516 | 65 | 225 | 3.5 | 8.7 | 0.00 | 0.25 | 0.13 | 60 | 1019.0 |
| 20260505165515 | 64 | 225 | 4.3 | 9.6 | 0.00 | 0.25 | 0.13 | 62 | 1018.9 |
| 20260505164515 | 63 | 225 | 1.7 | 5.2 | 0.00 | 0.25 | 0.13 | 68 | 1018.8 |
| 20260505163515 | 62 | 248 | 3.5 | 7.8 | 0.00 | 0.25 | 0.13 | 68 | 1018.7 |
| 20260505162515 | 62 | 225 | 3.5 | 11.3 | 0.00 | 0.25 | 0.13 | 68 | 1018.5 |
| 20260505161515 | 62 | 225 | 4.3 | 9.6 | 0.00 | 0.25 | 0.13 | 67 | 1018.3 |
| 20260505160517 | 61 | 135 | 2.6 | 7.0 | 0.00 | 0.25 | 0.13 | 68 | 1018.5 |
| 20260505152517 | 60 | 248 | 2.6 | 6.1 | 0.00 | 0.25 | 0.13 | 72 | 1018.0 |
| 20260505151517 | 60 | 270 | 4.3 | 6.1 | 0.00 | 0.25 | 0.13 | 71 | 1017.9 |
| 20260505150517 | 60 | 225 | 1.7 | 3.5 | 0.00 | 0.25 | 0.13 | 70 | 1017.8 |
| 20260505140518 | 59 | 90 | 3.5 | 6.1 | 0.00 | 0.25 | 0.13 | 73 | 1018.2 |
| 20260505124517 | 58 | 135 | 2.6 | 5.2 | 0.01 | 0.24 | 0.12 | 74 | 1017.5 |
| 20260505123517 | 58 | 135 | 1.7 | 5.2 | 0.01 | 0.24 | 0.12 | 75 | 1017.3 |
| 20260505122517 | 58 | 90 | 4.3 | 7.8 | 0.01 | 0.24 | 0.12 | 76 | 1017.1 |
| 20260505121517 | 57 | 158 | 1.7 | 5.2 | 0.02 | 0.24 | 0.12 | 77 | 1017.3 |
| 20260505120517 | 57 | 45 | 1.7 | 5.2 | 0.02 | 0.24 | 0.12 | 80 | 1017.0 |
| 20260505115517 | 57 | 0.0 | 0.9 | 0.01 | 0.23 | 0.11 | 81 | 1017.9 | |
| 20260505114517 | 57 | 225 | 0.9 | 3.5 | 0.01 | 0.23 | 0.11 | 77 | 1018.0 |
| 20260505113517 | 57 | 293 | 0.9 | 3.5 | 0.01 | 0.23 | 0.11 | 75 | 1018.1 |
| 20260505112517 | 58 | 225 | 0.9 | 2.6 | 0.01 | 0.23 | 0.11 | 75 | 1018.7 |
| 20260505111517 | 58 | 248 | 0.9 | 3.5 | 0.00 | 0.22 | 0.10 | 75 | 1018.8 |
| 20260505110517 | 58 | 0.0 | 0.9 | 0.01 | 0.22 | 0.10 | 79 | 1018.3 | |
| 20260505101517 | 57 | 90 | 1.7 | 3.5 | 0.04 | 0.22 | 0.10 | 76 | 1019.4 |
| 20260505100517 | 57 | 90 | 2.6 | 5.2 | 0.03 | 0.21 | 0.09 | 76 | 1019.7 |
| 20260505095517 | 58 | 90 | 1.7 | 3.5 | 0.02 | 0.20 | 0.08 | 78 | 1020.0 |
| 20260505094517 | 58 | 90 | 3.5 | 6.1 | 0.02 | 0.19 | 0.07 | 77 | 1020.2 |
| 20260505093517 | 58 | 90 | 4.3 | 7.8 | 0.02 | 0.19 | 0.07 | 78 | 1020.2 |
| 20260505092517 | 57 | 90 | 3.5 | 7.0 | 0.02 | 0.19 | 0.07 | 80 | 1020.4 |
| 20260505091517 | 58 | 90 | 3.5 | 7.8 | 0.02 | 0.18 | 0.06 | 80 | 1020.9 |
| 20260505090517 | 57 | 90 | 3.5 | 6.1 | 0.04 | 0.18 | 0.06 | 81 | 1020.8 |
| 20260505085517 | 57 | 113 | 1.7 | 5.2 | 0.05 | 0.18 | 0.06 | 81 | 1021.0 |
| 20260505084517 | 58 | 90 | 3.5 | 7.0 | 0.04 | 0.17 | 0.05 | 81 | 1021.3 |
| 20260505083516 | 57 | 113 | 3.5 | 7.0 | 0.05 | 0.17 | 0.05 | 81 | 1021.2 |
| 20260505082516 | 58 | 90 | 3.5 | 6.1 | 0.04 | 0.16 | 0.04 | 80 | 1021.6 |
| 20260505081516 | 58 | 113 | 3.5 | 6.1 | 0.04 | 0.16 | 0.04 | 77 | 1021.9 |
| 20260505080516 | 58 | 113 | 2.6 | 6.1 | 0.02 | 0.14 | 0.02 | 75 | 1022.0 |
| 20260505075516 | 59 | 158 | 1.7 | 4.3 | 0.02 | 0.13 | 0.01 | 74 | 1022.2 |
| 20260505074516 | 59 | 113 | 2.6 | 6.1 | 0.02 | 0.13 | 0.01 | 73 | 1022.2 |
| 20260505073516 | 59 | 113 | 0.9 | 2.6 | 0.02 | 0.12 | 0.00 | 75 | 1022.1 |
| 20260505072516 | 59 | 90 | 1.7 | 2.6 | 0.03 | 0.12 | 0.00 | 76 | 1021.8 |
| 20260505071516 | 59 | 113 | 2.6 | 3.5 | 0.04 | 0.12 | 0.00 | 76 | 1021.8 |
| 20260505070517 | 58 | 90 | 1.7 | 2.6 | 0.04 | 0.12 | 0.00 | 79 | 1021.5 |
| 20260505065517 | 59 | 113 | 2.6 | 5.2 | 0.03 | 0.11 | 0.11 | 74 | 1021.9 |
| 20260505064517 | 59 | 135 | 2.6 | 4.3 | 0.03 | 0.11 | 0.11 | 75 | 1022.1 |
| 20260505063517 | 59 | 0.0 | 0.9 | 0.02 | 0.10 | 0.10 | 77 | 1021.9 | |
| 20260505062517 | 59 | 90 | 1.7 | 3.5 | 0.02 | 0.09 | 0.09 | 76 | 1021.7 |
| 20260505061517 | 60 | 135 | 3.5 | 7.0 | 0.01 | 0.08 | 0.08 | 69 | 1021.8 |
| 20260505060517 | 60 | 90 | 3.5 | 5.2 | 0.01 | 0.08 | 0.08 | 70 | 1021.3 |
| 20260505055517 | 60 | 113 | 2.6 | 4.3 | 0.01 | 0.08 | 0.08 | 72 | 1021.6 |
| 20260505054517 | 60 | 90 | 3.5 | 5.2 | 0.01 | 0.08 | 0.08 | 70 | 1021.7 |
| 20260505053517 | 60 | 113 | 3.5 | 7.0 | 0.01 | 0.08 | 0.08 | 69 | 1021.8 |
| 20260505052517 | 61 | 113 | 2.6 | 6.1 | 0.00 | 0.07 | 0.07 | 65 | 1022.0 |
| 20260505051517 | 61 | 135 | 1.7 | 4.3 | 0.00 | 0.07 | 0.07 | 63 | 1021.9 |
| 20260505050517 | 62 | 90 | 1.7 | 3.5 | 0.00 | 0.07 | 0.07 | 62 | 1021.8 |